createdAt,value
2018-05-23T00:02:05.584Z,6.33
2018-05-23T00:04:31.904Z,4.97
2018-05-23T00:06:58.223Z,5.27
2018-05-23T00:09:25.215Z,5.00
2018-05-23T00:11:51.590Z,12.23
2018-05-23T00:14:18.643Z,6.43
2018-05-23T00:16:45.036Z,6.30
2018-05-23T00:19:11.363Z,6.30
2018-05-23T00:21:37.732Z,7.57
2018-05-23T00:24:04.970Z,5.30
2018-05-23T00:26:32.126Z,5.20
2018-05-23T00:28:58.408Z,6.70
2018-05-23T00:31:24.708Z,5.33
2018-05-23T00:33:51.057Z,4.90
2018-05-23T00:36:17.354Z,4.20
2018-05-23T00:38:44.424Z,5.90
2018-05-23T00:41:11.680Z,5.47
2018-05-23T00:43:38.022Z,7.23
2018-05-23T00:46:05.000Z,8.17
2018-05-23T00:48:31.327Z,7.73
2018-05-23T00:50:57.653Z,7.30
2018-05-23T00:53:24.000Z,4.90
2018-05-23T00:55:51.100Z,7.53
2018-05-23T00:58:17.387Z,11.67
2018-05-23T01:00:43.709Z,7.77
2018-05-23T01:03:10.792Z,5.80
2018-05-23T01:05:37.112Z,9.53
2018-05-23T01:08:03.456Z,8.90
2018-05-23T01:10:29.793Z,7.13
2018-05-23T01:12:56.161Z,3.47
2018-05-23T01:15:22.481Z,9.03
2018-05-23T01:17:48.796Z,5.50
2018-05-23T01:20:15.101Z,5.87
2018-05-23T01:22:41.429Z,7.50
2018-05-23T01:25:07.756Z,8.03
2018-05-23T01:27:44.716Z,10.17
2018-05-23T01:30:11.087Z,8.67
2018-05-23T01:32:38.183Z,4.73
2018-05-23T01:35:04.576Z,7.97
2018-05-23T01:37:30.870Z,5.60
2018-05-23T01:39:57.808Z,3.87
2018-05-23T01:42:26.588Z,5.27
2018-05-23T01:44:52.863Z,6.20
2018-05-23T01:47:19.244Z,5.63
2018-05-23T01:49:45.537Z,6.60
2018-05-23T01:52:11.881Z,7.63
2018-05-23T01:54:38.929Z,4.93
2018-05-23T01:57:05.258Z,6.73
2018-05-23T01:59:31.578Z,5.97
2018-05-23T02:01:58.669Z,8.90
2018-05-23T02:04:25.008Z,7.70
2018-05-23T02:06:51.395Z,7.97
2018-05-23T02:09:17.731Z,4.40
2018-05-23T02:11:44.809Z,7.00
2018-05-23T02:14:11.186Z,5.90
2018-05-23T02:16:38.265Z,4.70
2018-05-23T02:19:04.586Z,8.63
2018-05-23T02:21:30.887Z,6.10
2018-05-23T02:23:57.184Z,8.23
2018-05-23T02:26:23.504Z,5.73
2018-05-23T02:28:51.612Z,4.67
2018-05-23T02:31:17.974Z,6.97
2018-05-23T02:33:44.306Z,5.63
2018-05-23T02:36:10.628Z,11.73
2018-05-23T02:38:36.941Z,5.60
2018-05-23T02:41:04.049Z,6.60
2018-05-23T02:43:30.377Z,8.00
2018-05-23T02:45:56.745Z,5.73
2018-05-23T02:48:23.070Z,5.70
2018-05-23T02:50:49.387Z,7.00
2018-05-23T02:53:15.713Z,13.43
2018-05-23T02:55:42.011Z,7.27
2018-05-23T02:58:08.329Z,8.90
2018-05-23T03:00:34.648Z,10.03
2018-05-23T03:03:01.973Z,8.17
2018-05-23T03:05:28.197Z,7.13
2018-05-23T03:07:54.547Z,8.20
2018-05-23T03:10:21.593Z,9.20
2018-05-23T03:12:47.898Z,7.20
2018-05-23T03:15:14.236Z,8.40
2018-05-23T03:17:41.287Z,7.60
2018-05-23T03:20:07.617Z,16.73
2018-05-23T03:22:36.067Z,9.00
2018-05-23T03:25:02.398Z,8.90
2018-05-23T03:27:28.739Z,6.30
2018-05-23T03:29:55.080Z,6.30
2018-05-23T03:32:22.135Z,5.87
2018-05-23T03:34:48.413Z,6.00
2018-05-23T03:37:14.751Z,7.30
2018-05-23T03:39:41.105Z,9.07
2018-05-23T03:42:07.447Z,7.70
2018-05-23T03:44:34.521Z,7.23
2018-05-23T03:47:00.840Z,9.50
2018-05-23T03:49:27.176Z,9.27
2018-05-23T03:51:53.467Z,6.97
2018-05-23T03:54:21.491Z,10.77
2018-05-23T03:56:47.816Z,6.33
2018-05-23T03:59:14.139Z,8.63
2018-05-23T04:01:59.663Z,4.83
2018-05-23T04:04:44.503Z,7.17
2018-05-23T04:07:34.932Z,8.47
2018-05-23T04:10:01.256Z,9.40
2018-05-23T04:12:27.613Z,7.37
2018-05-23T04:14:53.934Z,6.07
2018-05-23T04:17:21.044Z,6.07
2018-05-23T04:19:47.372Z,6.90
2018-05-23T04:22:13.659Z,8.43
2018-05-23T04:24:41.025Z,7.07
2018-05-23T04:27:07.361Z,8.10
2018-05-23T04:29:33.706Z,7.47
2018-05-23T04:31:59.996Z,9.90
2018-05-23T04:34:26.332Z,8.37
2018-05-23T04:36:52.657Z,7.80
2018-05-23T04:39:19.020Z,10.50
2018-05-23T04:41:45.301Z,12.50
2018-05-23T04:44:12.370Z,10.83
2018-05-23T04:46:39.693Z,9.80
2018-05-23T04:49:06.014Z,6.97
2018-05-23T04:51:33.091Z,7.17
2018-05-23T04:53:59.390Z,10.37
2018-05-23T04:56:26.500Z,10.07
2018-05-23T04:58:52.816Z,10.40
2018-05-23T05:01:19.150Z,11.73
2018-05-23T05:03:45.492Z,8.23
2018-05-23T05:06:11.866Z,10.53
2018-05-23T05:08:38.928Z,13.20
2018-05-23T05:11:05.292Z,11.50
2018-05-23T05:13:31.666Z,11.60
2018-05-23T05:15:58.769Z,8.87
2018-05-23T05:18:25.112Z,15.43
2018-05-23T05:20:51.481Z,9.87
2018-05-23T05:23:17.797Z,9.23
2018-05-23T05:25:44.155Z,9.97
2018-05-23T05:28:10.564Z,10.93
2018-05-23T05:30:36.925Z,14.33
2018-05-23T05:33:03.477Z,11.47
2018-05-23T05:35:29.816Z,11.97
2018-05-23T05:37:56.244Z,12.00
2018-05-23T05:40:22.639Z,12.90
2018-05-23T05:42:48.937Z,13.33
2018-05-23T05:45:15.347Z,12.37
2018-05-23T05:47:42.422Z,11.10
2018-05-23T05:50:08.811Z,12.57
2018-05-23T05:52:35.137Z,14.23
2018-05-23T05:55:01.501Z,15.03
2018-05-23T05:57:27.840Z,12.07
2018-05-23T05:59:54.991Z,17.53
2018-05-23T06:02:22.054Z,16.47
2018-05-23T06:04:49.079Z,12.90
2018-05-23T06:07:15.494Z,22.90
2018-05-23T06:09:41.930Z,13.20
2018-05-23T06:12:08.924Z,15.30
2018-05-23T06:14:35.253Z,17.00
2018-05-23T06:17:01.593Z,16.03
2018-05-23T06:19:27.956Z,11.30
2018-05-23T06:21:54.279Z,12.50
2018-05-23T06:24:20.596Z,12.83
2018-05-23T06:26:46.981Z,13.00
2018-05-23T06:29:13.304Z,12.83
2018-05-23T06:31:39.687Z,13.23
2018-05-23T06:34:06.057Z,12.43
2018-05-23T06:36:33.139Z,12.87
2018-05-23T06:38:59.447Z,10.10
2018-05-23T06:41:25.844Z,9.20
2018-05-23T06:43:52.186Z,11.80
2018-05-23T06:46:18.503Z,12.53
2018-05-23T06:48:44.874Z,10.10
2018-05-23T06:51:11.216Z,10.77
2018-05-23T06:53:38.253Z,12.10
2018-05-23T06:56:04.588Z,9.77
2018-05-23T06:58:30.911Z,10.50
2018-05-23T07:00:57.255Z,13.10
2018-05-23T07:03:24.350Z,13.60
2018-05-23T07:05:50.669Z,11.63
2018-05-23T07:08:17.902Z,13.90
2018-05-23T07:10:44.286Z,12.83
2018-05-23T07:13:10.627Z,11.57
2018-05-23T07:15:37.021Z,10.10
2018-05-23T07:18:04.168Z,10.53
2018-05-23T07:20:31.136Z,12.17
2018-05-23T07:22:58.162Z,16.93
2018-05-23T07:25:25.216Z,17.80
2018-05-23T07:27:52.248Z,15.40
2018-05-23T07:30:18.594Z,14.00
2018-05-23T07:32:44.928Z,10.90
2018-05-23T07:35:11.342Z,14.10
2018-05-23T07:37:37.684Z,17.77
2018-05-23T07:40:04.073Z,15.10
2018-05-23T07:42:30.399Z,14.47
2018-05-23T07:44:56.753Z,14.70
2018-05-23T07:47:23.071Z,14.00
2018-05-23T07:49:49.379Z,18.30
2018-05-23T07:52:15.752Z,12.93
2018-05-23T07:54:42.106Z,10.00
2018-05-23T07:57:08.470Z,14.40
2018-05-23T07:59:34.793Z,14.37
2018-05-23T08:02:01.183Z,16.60
2018-05-23T08:04:27.472Z,15.63
2018-05-23T08:06:53.851Z,15.03
2018-05-23T08:09:20.167Z,12.23
2018-05-23T08:11:46.531Z,10.40
2018-05-23T08:14:12.883Z,12.83
2018-05-23T08:16:39.239Z,11.73
2018-05-23T08:19:05.565Z,10.13
2018-05-23T08:21:31.928Z,13.13
2018-05-23T08:23:58.991Z,10.63
2018-05-23T08:26:25.321Z,14.20
2018-05-23T08:28:51.664Z,9.83
2018-05-23T08:31:17.999Z,13.83
2018-05-23T08:33:44.324Z,10.83
2018-05-23T08:36:11.380Z,11.30
2018-05-23T08:38:37.744Z,13.40
2018-05-23T08:41:04.102Z,15.93
2018-05-23T08:43:30.498Z,11.97
2018-05-23T08:45:56.930Z,9.50
2018-05-23T08:48:23.211Z,12.37
2018-05-23T08:50:49.528Z,13.47
2018-05-23T08:53:15.836Z,12.47
2018-05-23T08:55:42.162Z,15.73
2018-05-23T08:58:08.499Z,18.90
2018-05-23T09:00:34.870Z,14.93
2018-05-23T09:03:01.168Z,17.63
2018-05-23T09:05:28.263Z,12.27
2018-05-23T09:07:54.595Z,12.60
2018-05-23T09:10:20.945Z,13.73
2018-05-23T09:12:47.272Z,13.20
2018-05-23T09:15:13.645Z,16.40
2018-05-23T09:17:40.000Z,11.07
2018-05-23T09:20:06.393Z,10.20
2018-05-23T09:22:32.729Z,9.07
2018-05-23T09:24:59.082Z,12.80
2018-05-23T09:27:26.216Z,13.90
2018-05-23T09:29:53.290Z,8.70
2018-05-23T09:32:19.703Z,12.40
2018-05-23T09:34:45.943Z,10.03
2018-05-23T09:37:12.292Z,8.50
2018-05-23T09:39:39.356Z,11.23
2018-05-23T09:42:05.676Z,11.50
2018-05-23T09:44:32.020Z,11.27
2018-05-23T09:46:58.356Z,10.97
2018-05-23T09:49:25.441Z,8.63
2018-05-23T09:51:51.725Z,8.07
2018-05-23T09:54:18.086Z,9.30
2018-05-23T09:56:44.429Z,9.70
2018-05-23T09:59:10.794Z,8.87
2018-05-23T10:01:37.158Z,13.67
2018-05-23T10:04:03.497Z,11.40
2018-05-23T10:06:30.567Z,11.00
2018-05-23T10:08:57.039Z,10.60
2018-05-23T10:11:23.402Z,8.73
2018-05-23T10:13:49.756Z,8.47
2018-05-23T10:16:16.095Z,10.60
2018-05-23T10:18:42.452Z,10.47
2018-05-23T10:21:08.795Z,11.80
2018-05-23T10:23:35.123Z,11.70
2018-05-23T10:26:01.432Z,9.07
2018-05-23T10:28:27.787Z,10.13
2018-05-23T10:30:54.164Z,14.37
2018-05-23T10:33:20.496Z,8.90
2018-05-23T10:35:47.574Z,10.97
2018-05-23T10:38:13.960Z,11.90
2018-05-23T10:40:40.282Z,10.20
2018-05-23T10:43:06.607Z,10.70
2018-05-23T10:45:32.920Z,9.70
2018-05-23T10:47:59.990Z,10.43
2018-05-23T10:50:26.312Z,10.33
2018-05-23T10:52:53.385Z,9.70
2018-05-23T10:55:19.669Z,8.47
2018-05-23T10:57:46.009Z,13.23
2018-05-23T11:00:13.111Z,9.03
2018-05-23T11:02:39.514Z,8.90
2018-05-23T11:05:05.821Z,11.60
2018-05-23T11:07:32.170Z,10.87
2018-05-23T11:09:58.512Z,10.43
2018-05-23T11:12:24.877Z,11.20
2018-05-23T11:14:51.188Z,12.70
2018-05-23T11:17:17.523Z,10.30
2018-05-23T11:19:43.913Z,10.37
2018-05-23T11:22:10.323Z,11.13
2018-05-23T11:24:38.414Z,13.83
2018-05-23T11:27:04.747Z,20.20
2018-05-23T11:29:31.068Z,12.33
2018-05-23T11:31:58.778Z,14.17
2018-05-23T11:34:25.126Z,13.47
2018-05-23T11:36:51.433Z,12.10
2018-05-23T11:39:17.759Z,13.83
2018-05-23T11:41:44.093Z,10.53
2018-05-23T11:44:10.424Z,12.17
2018-05-23T11:46:36.813Z,12.27
2018-05-23T11:49:03.156Z,12.57
2018-05-23T11:51:29.503Z,11.60
2018-05-23T11:53:55.882Z,12.63
2018-05-23T11:56:22.229Z,10.50
2018-05-23T11:58:49.445Z,15.77
2018-05-23T12:01:15.785Z,13.03
2018-05-23T12:03:42.895Z,11.97
2018-05-23T12:06:09.322Z,13.77
2018-05-23T12:08:35.688Z,13.57
2018-05-23T12:11:02.061Z,11.17
2018-05-23T12:13:28.461Z,8.77
2018-05-23T12:15:54.836Z,11.83
2018-05-23T12:18:21.153Z,10.50
2018-05-23T12:20:47.475Z,14.63
2018-05-23T12:23:14.753Z,13.40
2018-05-23T12:25:41.081Z,12.97
2018-05-23T12:28:07.405Z,12.40
2018-05-23T12:30:34.469Z,12.70
2018-05-23T12:33:00.795Z,13.00
2018-05-23T12:35:28.123Z,10.60
2018-05-23T12:37:54.432Z,15.17
2018-05-23T12:40:21.514Z,10.63
2018-05-23T12:42:47.872Z,12.73
2018-05-23T12:45:14.260Z,9.70
2018-05-23T12:47:40.635Z,12.73
2018-05-23T12:50:06.984Z,19.00
2018-05-23T12:52:33.367Z,16.20
2018-05-23T12:54:59.688Z,13.53
2018-05-23T12:57:26.028Z,15.03
2018-05-23T12:59:52.358Z,11.37
2018-05-23T13:02:18.724Z,10.10
2018-05-23T13:04:45.044Z,13.90
2018-05-23T13:07:11.389Z,13.80
2018-05-23T13:09:38.452Z,14.13
2018-05-23T13:12:05.609Z,10.60
2018-05-23T13:14:31.943Z,11.90
2018-05-23T13:16:58.305Z,11.93
2018-05-23T13:19:24.646Z,14.57
2018-05-23T13:21:50.966Z,16.20
2018-05-23T13:24:17.308Z,11.97
2018-05-23T13:26:44.464Z,14.27
2018-05-23T13:29:10.800Z,12.37
2018-05-23T13:31:37.098Z,11.30
2018-05-23T13:34:04.407Z,11.10
2018-05-23T13:36:30.806Z,14.67
2018-05-23T13:38:57.151Z,11.17
2018-05-23T13:41:23.498Z,10.60
2018-05-23T13:43:49.810Z,15.00
2018-05-23T13:46:16.917Z,10.63
2018-05-23T13:48:43.236Z,12.00
2018-05-23T13:51:09.591Z,13.13
2018-05-23T13:53:35.950Z,9.63
2018-05-23T13:56:03.116Z,11.87
2018-05-23T13:58:29.447Z,11.10
2018-05-23T14:00:55.845Z,9.90
2018-05-23T14:03:22.244Z,12.13
2018-05-23T14:05:48.580Z,8.43
2018-05-23T14:08:14.868Z,10.43
2018-05-23T14:10:41.267Z,10.63
2018-05-23T14:13:15.223Z,17.03
2018-05-23T14:15:41.620Z,11.77
2018-05-23T14:18:15.439Z,19.03
2018-05-23T14:20:41.760Z,22.00
2018-05-23T14:23:08.802Z,16.90
2018-05-23T14:25:35.920Z,15.03
2018-05-23T14:28:02.306Z,16.07
2018-05-23T14:30:28.664Z,15.77
2018-05-23T14:32:55.060Z,14.50
2018-05-23T14:35:21.405Z,12.57
2018-05-23T14:37:47.777Z,15.13
2018-05-23T14:40:14.122Z,14.87
2018-05-23T14:42:40.474Z,15.20
2018-05-23T14:45:06.797Z,10.10
2018-05-23T14:47:33.155Z,11.37
2018-05-23T14:49:59.580Z,11.33
2018-05-23T14:52:25.884Z,9.47
2018-05-23T14:54:52.249Z,15.70
2018-05-23T14:57:18.554Z,10.30
2018-05-23T14:59:44.885Z,11.07
2018-05-23T15:02:11.231Z,11.57
2018-05-23T15:04:37.593Z,13.50
2018-05-23T15:07:03.992Z,12.03
2018-05-23T15:09:30.378Z,14.17
2018-05-23T15:11:57.659Z,11.40
2018-05-23T15:14:24.114Z,11.60
2018-05-23T15:16:50.368Z,10.07
2018-05-23T15:19:16.702Z,10.70
2018-05-23T15:21:43.013Z,15.10
2018-05-23T15:24:09.424Z,14.27
2018-05-23T15:26:35.735Z,11.23
2018-05-23T15:29:02.055Z,14.27
2018-05-23T15:31:28.375Z,12.77
2018-05-23T15:34:01.640Z,12.50
2018-05-23T15:36:27.986Z,11.63
2018-05-23T15:38:55.062Z,12.10
2018-05-23T15:41:21.440Z,15.03
2018-05-23T15:43:47.807Z,15.37
2018-05-23T15:46:14.929Z,13.20
2018-05-23T15:48:41.253Z,14.23
2018-05-23T15:51:07.691Z,11.00
2018-05-23T15:53:33.977Z,12.80
2018-05-23T15:56:00.380Z,11.90
2018-05-23T15:58:26.729Z,14.63
2018-05-23T16:00:53.108Z,12.67
2018-05-23T16:03:20.205Z,11.50
2018-05-23T16:05:46.560Z,11.83
2018-05-23T16:08:12.891Z,12.03
2018-05-23T16:10:39.304Z,13.90
2018-05-23T16:13:05.961Z,11.13
2018-05-23T16:15:32.308Z,12.43
2018-05-23T16:17:58.623Z,17.37
2018-05-23T16:20:24.970Z,13.43
2018-05-23T16:23:01.969Z,15.53
2018-05-23T16:25:29.032Z,10.73
2018-05-23T16:27:55.325Z,9.27
2018-05-23T16:30:21.742Z,10.33
2018-05-23T16:32:48.089Z,12.73
2018-05-23T16:35:14.460Z,12.93
2018-05-23T16:37:41.680Z,12.33
2018-05-23T16:40:09.720Z,12.23
2018-05-23T16:42:36.096Z,10.77
2018-05-23T16:45:02.472Z,12.57
2018-05-23T16:47:28.926Z,9.27
2018-05-23T16:49:55.240Z,10.73
2018-05-23T16:52:21.620Z,14.10
2018-05-23T16:54:47.960Z,11.60
2018-05-23T16:57:14.327Z,14.17
2018-05-23T16:59:40.672Z,14.63
2018-05-23T17:02:07.002Z,17.67
2018-05-23T17:04:33.353Z,13.63
2018-05-23T17:06:59.717Z,10.23
2018-05-23T17:09:26.063Z,16.70
2018-05-23T17:11:52.440Z,10.20
2018-05-23T17:14:18.752Z,11.47
2018-05-23T17:16:45.164Z,21.00
2018-05-23T17:19:11.489Z,13.67
2018-05-23T17:21:37.847Z,15.97
2018-05-23T17:24:04.221Z,15.40
2018-05-23T17:26:30.612Z,14.20
2018-05-23T17:28:56.986Z,17.90
2018-05-23T17:31:23.413Z,15.60
2018-05-23T17:33:49.776Z,14.83
2018-05-23T17:36:16.094Z,15.57
2018-05-23T17:38:42.472Z,15.43
2018-05-23T17:41:08.830Z,16.03
2018-05-23T17:43:35.201Z,16.80
2018-05-23T17:46:05.931Z,15.83
2018-05-23T17:48:32.373Z,14.87
2018-05-23T17:50:58.738Z,13.77
2018-05-23T17:53:25.784Z,12.50
2018-05-23T17:55:52.149Z,12.00
2018-05-23T17:58:18.456Z,12.50
2018-05-23T18:00:44.811Z,12.20
2018-05-23T18:03:11.107Z,21.63
2018-05-23T18:05:38.194Z,15.13
2018-05-23T18:08:05.478Z,16.30
2018-05-23T18:10:31.819Z,15.30
2018-05-23T18:12:58.924Z,11.20
2018-05-23T18:15:26.291Z,9.20
2018-05-23T18:17:52.883Z,14.40
2018-05-23T18:20:19.088Z,11.13
2018-05-23T18:22:46.191Z,9.23
2018-05-23T18:25:13.337Z,12.00
2018-05-23T18:27:39.675Z,14.73
2018-05-23T18:30:06.027Z,11.47
2018-05-23T18:32:32.382Z,13.17
2018-05-23T18:34:59.465Z,11.40
2018-05-23T18:37:25.844Z,11.67
2018-05-23T18:39:52.203Z,14.17
2018-05-23T18:42:18.558Z,10.23
2018-05-23T18:44:44.921Z,10.20
2018-05-23T18:47:11.274Z,14.03
2018-05-23T18:49:38.365Z,11.90
2018-05-23T18:52:04.761Z,9.80
2018-05-23T18:54:31.140Z,11.13
2018-05-23T18:56:57.555Z,7.43
2018-05-23T18:59:23.880Z,10.30
2018-05-23T19:01:50.241Z,7.70
2018-05-23T19:04:16.645Z,8.37
2018-05-23T19:06:43.004Z,7.87
2018-05-23T19:09:09.608Z,7.63
2018-05-23T19:11:35.973Z,10.40
2018-05-23T19:14:02.373Z,8.77
2018-05-23T19:16:28.807Z,9.00
2018-05-23T19:18:55.243Z,9.40
2018-05-23T19:21:21.621Z,8.90
2018-05-23T19:23:48.038Z,8.10
2018-05-23T19:26:15.121Z,9.97
2018-05-23T19:28:42.558Z,11.63
2018-05-23T19:31:09.687Z,10.17
2018-05-23T19:33:36.112Z,8.70
2018-05-23T19:36:02.546Z,8.27
2018-05-23T19:38:28.947Z,9.77
2018-05-23T19:40:55.328Z,10.63
2018-05-23T19:43:22.570Z,9.13
2018-05-23T19:45:49.699Z,10.07
2018-05-23T19:48:16.103Z,7.97
2018-05-23T19:50:42.480Z,11.77
2018-05-23T19:53:09.579Z,9.50
2018-05-23T19:55:35.942Z,10.47
2018-05-23T19:58:02.368Z,11.83
2018-05-23T20:00:28.795Z,10.67
2018-05-23T20:02:55.167Z,15.60
2018-05-23T20:05:21.544Z,9.90
2018-05-23T20:07:47.936Z,11.23
2018-05-23T20:10:14.405Z,10.97
2018-05-23T20:12:40.811Z,10.40
2018-05-23T20:15:07.181Z,10.97
2018-05-23T20:17:33.631Z,15.47
2018-05-23T20:20:00.722Z,14.90
2018-05-23T20:22:27.106Z,9.90
2018-05-23T20:24:53.452Z,10.67
2018-05-23T20:27:19.832Z,9.40
2018-05-23T20:29:46.971Z,9.80
2018-05-23T20:32:13.372Z,10.60
2018-05-23T20:34:39.827Z,9.23
2018-05-23T20:37:06.190Z,9.13
2018-05-23T20:39:32.577Z,16.00
2018-05-23T20:41:58.951Z,9.00
2018-05-23T20:44:25.322Z,14.23
2018-05-23T20:46:51.680Z,11.00
2018-05-23T20:49:18.052Z,11.60
2018-05-23T20:51:44.464Z,10.30
2018-05-23T20:54:10.864Z,15.47
2018-05-23T20:56:37.329Z,10.43
2018-05-23T20:59:03.749Z,10.97
2018-05-23T21:01:31.053Z,11.97
2018-05-23T21:03:57.425Z,10.70
2018-05-23T21:06:23.830Z,13.63
2018-05-23T21:08:50.176Z,10.87
2018-05-23T21:11:16.599Z,12.63
2018-05-23T21:13:43.001Z,12.87
2018-05-23T21:16:10.170Z,12.77
2018-05-23T21:18:36.505Z,10.83
2018-05-23T21:21:02.855Z,15.70
2018-05-23T21:23:29.216Z,13.43
2018-05-23T21:25:55.558Z,11.90
2018-05-23T21:28:21.865Z,17.73
2018-05-23T21:30:48.229Z,12.20
2018-05-23T21:33:17.886Z,15.63
2018-05-23T21:35:44.221Z,13.03
2018-05-23T21:38:12.146Z,16.30
2018-05-23T21:40:38.479Z,14.90
2018-05-23T21:43:05.584Z,10.83
2018-05-23T21:45:32.847Z,11.43
2018-05-23T21:47:59.980Z,14.00
2018-05-23T21:50:26.308Z,13.70
2018-05-23T21:52:52.696Z,13.10
2018-05-23T21:55:19.009Z,11.90
2018-05-23T21:57:45.404Z,12.03
2018-05-23T22:00:11.821Z,12.83
2018-05-23T22:02:38.186Z,13.90
2018-05-23T22:05:06.192Z,12.77
2018-05-23T22:07:32.544Z,11.37
2018-05-23T22:09:58.917Z,13.30
2018-05-23T22:12:26.093Z,11.17
2018-05-23T22:14:52.438Z,14.43
2018-05-23T22:17:19.916Z,17.13
2018-05-23T22:19:46.313Z,14.07
2018-05-23T22:22:12.629Z,16.80
2018-05-23T22:24:39.083Z,14.43
2018-05-23T22:27:05.364Z,12.57
2018-05-23T22:29:31.729Z,12.97
2018-05-23T22:31:59.943Z,14.70
2018-05-23T22:34:26.312Z,11.93
2018-05-23T22:36:53.380Z,12.60
2018-05-23T22:39:19.696Z,13.40
2018-05-23T22:41:46.042Z,15.93
2018-05-23T22:44:12.355Z,13.10
2018-05-23T22:46:38.720Z,12.40
2018-05-23T22:49:05.036Z,15.93
2018-05-23T22:51:31.399Z,13.93
2018-05-23T22:53:57.737Z,12.33
2018-05-23T22:56:24.048Z,14.60
2018-05-23T22:58:50.380Z,13.27
2018-05-23T23:01:16.726Z,13.80
2018-05-23T23:03:43.074Z,15.27
2018-05-23T23:06:10.163Z,12.33
2018-05-23T23:08:36.483Z,13.37
2018-05-23T23:11:02.808Z,17.30
2018-05-23T23:13:29.136Z,14.20
2018-05-23T23:15:55.516Z,13.33
2018-05-23T23:18:21.910Z,11.33
2018-05-23T23:20:48.226Z,14.23
2018-05-23T23:23:14.558Z,12.40
2018-05-23T23:25:40.877Z,16.07
2018-05-23T23:28:09.224Z,16.07
2018-05-23T23:30:35.555Z,15.13
2018-05-23T23:33:02.678Z,15.20
2018-05-23T23:35:28.984Z,12.47
2018-05-23T23:37:56.211Z,17.50
2018-05-23T23:40:22.519Z,12.43
2018-05-23T23:42:49.607Z,15.57
2018-05-23T23:45:15.931Z,20.50
2018-05-23T23:47:42.282Z,17.80
2018-05-23T23:50:08.615Z,14.67
2018-05-23T23:52:34.926Z,16.13
2018-05-23T23:55:01.273Z,13.97
2018-05-23T23:57:27.600Z,17.93
2018-05-23T23:59:53.928Z,14.53
